Time;durP1;ratioP1;P1;durP2;ratioP2;P2;SDS_P1;SDS_P2;PMS_P1;PMS_P2;Temp;Humidity;BMP_temperature;BMP_pressure;BME280_temperature;BME280_humidity;BME280_pressure;Samples;Min_cycle;Max_cycle;Signal;HPM_P1;HPM_P2
2023/07/01 00:00:25;;;;;;;13.20;11.83;;;;;;;16.97;100.00;99856.13;5094748;28;20261;-74
2023/07/01 00:02:52;;;;;;;12.23;11.03;;;;;;;16.87;100.00;99853.88;5079098;28;20255;-73
2023/07/01 00:05:21;;;;;;;12.83;11.37;;;;;;;16.90;100.00;99847.69;5080993;28;20237;-74
2023/07/01 00:07:47;;;;;;;13.23;11.80;;;;;;;16.87;100.00;99848.66;5076617;28;20190;-74
2023/07/01 00:10:12;;;;;;;12.73;11.43;;;;;;;16.88;100.00;99847.75;5078241;28;20185;-74
2023/07/01 00:12:38;;;;;;;12.77;11.47;;;;;;;16.80;100.00;99841.16;5085612;28;20213;-74
2023/07/01 00:15:04;;;;;;;12.97;10.70;;;;;;;16.78;100.00;99849.06;5080984;28;20910;-74
2023/07/01 00:17:29;;;;;;;13.33;11.83;;;;;;;16.76;100.00;99841.28;5079224;28;20808;-74
2023/07/01 00:19:54;;;;;;;12.53;11.23;;;;;;;16.75;100.00;99842.19;5084032;28;20192;-74
2023/07/01 00:22:20;;;;;;;14.03;11.23;;;;;;;16.71;100.00;99835.38;5086067;28;20774;-73
2023/07/01 00:24:45;;;;;;;12.33;11.13;;;;;;;16.68;100.00;99838.13;5087495;28;20207;-73
2023/07/01 00:27:11;;;;;;;12.47;11.27;;;;;;;16.71;100.00;99843.22;5090357;28;20189;-74
2023/07/01 00:29:36;;;;;;;12.50;11.23;;;;;;;16.64;100.00;99836.56;5087623;28;20237;-74
2023/07/01 00:32:01;;;;;;;11.80;10.20;;;;;;;16.59;100.00;99839.38;5092049;28;20192;-74
2023/07/01 00:34:26;;;;;;;12.13;10.93;;;;;;;16.58;100.00;99844.63;5097519;28;20296;-73
2023/07/01 00:36:52;;;;;;;12.10;10.93;;;;;;;16.56;100.00;99838.66;5090980;28;20450;-74
2023/07/01 00:39:17;;;;;;;10.63;9.73;;;;;;;16.49;100.00;99845.03;5089617;28;20221;-74
2023/07/01 00:41:42;;;;;;;11.50;10.47;;;;;;;16.51;100.00;99849.25;5087575;28;20314;-74
2023/07/01 00:44:08;;;;;;;11.40;10.40;;;;;;;16.54;100.00;99848.31;5100599;27;20185;-73
2023/07/01 00:46:33;;;;;;;12.90;11.57;;;;;;;16.43;100.00;99833.91;5084226;28;20198;-75
2023/07/01 00:49:02;;;;;;;12.23;10.97;;;;;;;16.43;100.00;99833.06;5084444;28;20829;-76
2023/07/01 00:51:28;;;;;;;11.43;9.73;;;;;;;16.43;100.00;99830.47;5083783;28;20671;-76
2023/07/01 00:53:55;;;;;;;12.73;11.50;;;;;;;16.51;100.00;99828.38;5079909;28;20230;-75
2023/07/01 00:56:20;;;;;;;12.50;11.30;;;;;;;16.51;100.00;99827.53;5084118;28;20182;-75
2023/07/01 00:58:46;;;;;;;12.07;10.87;;;;;;;16.48;100.00;99830.25;5079942;28;20259;-75
2023/07/01 01:01:21;;;;;;;11.47;10.47;;;;;;;16.48;100.00;99825.03;5075369;28;20238;-75
2023/07/01 01:04:00;;;;;;;11.93;10.93;;;;;;;16.48;100.00;99828.53;5083420;28;20246;-75
2023/07/01 01:06:36;;;;;;;12.23;11.03;;;;;;;16.45;100.00;99826.88;5080248;28;20268;-75
2023/07/01 01:09:10;;;;;;;12.07;10.97;;;;;;;16.43;100.00;99826.06;5086137;28;20806;-75
2023/07/01 01:11:39;;;;;;;13.33;12.03;;;;;;;16.42;100.00;99828.75;5085918;28;20193;-75
2023/07/01 01:14:07;;;;;;;12.87;11.67;;;;;;;16.33;100.00;99829.97;5080648;28;20205;-75
2023/07/01 01:16:33;;;;;;;11.87;10.77;;;;;;;16.31;100.00;99821.34;5078296;28;20199;-75
2023/07/01 01:19:00;;;;;;;11.03;10.13;;;;;;;16.32;100.00;99824.81;5085912;28;20192;-75
2023/07/01 01:21:27;;;;;;;12.17;11.07;;;;;;;16.31;100.00;99829.19;5081803;28;20189;-75
2023/07/01 01:23:58;;;;;;;10.67;9.77;;;;;;;16.27;100.00;99828.47;5085147;28;20562;-75
2023/07/01 01:26:26;;;;;;;11.23;10.23;;;;;;;16.24;100.00;99831.19;5081657;28;20197;-74
2023/07/01 01:28:52;;;;;;;12.17;11.07;;;;;;;16.22;100.00;99830.41;5083323;28;20185;-75
2023/07/01 01:31:20;;;;;;;11.17;10.17;;;;;;;16.20;100.00;99826.16;5080580;28;20193;-75
2023/07/01 01:33:46;;;;;;;11.70;10.57;;;;;;;16.17;100.00;99824.53;5082797;28;20926;-75
2023/07/01 01:36:29;;;;;;;10.77;9.87;;;;;;;16.17;100.00;99819.31;5080885;28;20756;-75
2023/07/01 01:39:00;;;;;;;11.43;10.40;;;;;;;16.12;100.00;99821.25;5085006;28;20823;-75
2023/07/01 01:41:33;;;;;;;10.80;9.80;;;;;;;16.11;100.00;99811.72;5092458;28;20177;-75
2023/07/01 01:44:01;;;;;;;10.67;9.67;;;;;;;16.06;100.00;99811.91;5080123;28;20610;-75
2023/07/01 01:46:27;;;;;;;10.77;9.87;;;;;;;16.06;100.00;99809.28;5080651;28;20628;-75
2023/07/01 01:48:56;;;;;;;10.83;9.83;;;;;;;16.03;100.00;99812.00;5090192;28;20192;-75
2023/07/01 01:51:23;;;;;;;10.33;9.47;;;;;;;15.99;100.00;99815.66;5080414;28;20213;-75
2023/07/01 01:53:51;;;;;;;10.33;9.33;;;;;;;15.95;100.00;99812.31;5083242;28;20262;-75
2023/07/01 01:56:18;;;;;;;9.83;9.10;;;;;;;15.92;100.00;99812.41;5085256;28;20205;-76
2023/07/01 01:58:43;;;;;;;10.07;9.13;;;;;;;15.91;100.00;99823.78;5088471;28;20208;-74
2023/07/01 02:01:08;;;;;;;10.57;9.70;;;;;;;15.86;100.00;99815.28;5083633;28;20224;-75
2023/07/01 02:03:34;;;;;;;9.83;8.93;;;;;;;15.83;100.00;99813.59;5080633;28;20193;-74
2023/07/01 02:05:59;;;;;;;9.50;8.73;;;;;;;15.80;100.00;99813.75;5089537;28;20209;-75
2023/07/01 02:08:25;;;;;;;9.53;8.73;;;;;;;15.77;100.00;99815.59;5080965;28;20215;-75
2023/07/01 02:10:51;;;;;;;9.77;8.97;;;;;;;15.73;100.00;99811.41;5101942;27;20215;-75
2023/07/01 02:13:16;;;;;;;8.80;8.17;;;;;;;15.70;100.00;99810.63;5088690;28;20205;-74
2023/07/01 02:15:41;;;;;;;10.13;9.30;;;;;;;15.67;100.00;99807.25;5083156;28;20771;-75
2023/07/01 02:18:07;;;;;;;10.47;9.57;;;;;;;15.67;100.00;99809.88;5080644;28;20189;-75
2023/07/01 02:20:32;;;;;;;9.63;8.83;;;;;;;15.64;100.00;99808.22;5078707;28;20280;-75
2023/07/01 02:22:57;;;;;;;9.77;9.07;;;;;;;15.60;100.00;99796.22;5081522;28;20186;-75
2023/07/01 02:25:23;;;;;;;9.60;8.80;;;;;;;15.59;100.00;99798.88;5086171;28;20209;-75
2023/07/01 02:27:48;;;;;;;9.33;8.53;;;;;;;15.58;100.00;99794.56;5078269;28;20259;-75
2023/07/01 02:30:14;;;;;;;9.27;8.57;;;;;;;15.55;100.00;99796.38;5089481;28;20906;-75
2023/07/01 02:32:39;;;;;;;9.33;8.63;;;;;;;15.54;100.00;99799.06;5089293;28;20203;-75
2023/07/01 02:35:05;;;;;;;10.30;9.40;;;;;;;15.53;100.00;99800.81;5088153;28;20231;-73
2023/07/01 02:37:30;;;;;;;8.90;8.20;;;;;;;15.52;100.00;99795.66;5087415;28;20189;-75
2023/07/01 02:39:56;;;;;;;9.10;8.43;;;;;;;15.48;100.00;99804.50;5086133;28;20554;-75
2023/07/01 02:42:21;;;;;;;9.40;8.70;;;;;;;15.47;100.00;99800.19;5088640;28;20185;-75
2023/07/01 02:44:47;;;;;;;9.40;8.60;;;;;;;15.43;100.00;99807.28;5083027;28;20204;-74
2023/07/01 02:47:13;;;;;;;9.10;8.40;;;;;;;15.43;100.00;99801.22;5084150;28;20678;-75
2023/07/01 02:49:40;;;;;;;8.37;7.77;;;;;;;15.40;100.00;99799.56;5086826;28;20188;-73
2023/07/01 02:52:08;;;;;;;9.80;9.10;;;;;;;15.37;100.00;99803.16;5081795;28;20273;-73
2023/07/01 02:54:34;;;;;;;8.80;8.10;;;;;;;15.37;100.00;99800.53;5090610;28;20215;-73
2023/07/01 02:56:59;;;;;;;8.67;7.97;;;;;;;15.34;100.00;99807.63;5081396;28;20203;-75
2023/07/01 02:59:24;;;;;;;8.87;8.07;;;;;;;15.34;100.00;99805.03;5080191;28;20292;-75
2023/07/01 03:01:50;;;;;;;8.57;7.87;;;;;;;15.32;100.00;99806.84;5084553;28;20646;-74
2023/07/01 03:04:16;;;;;;;8.67;7.93;;;;;;;15.29;100.00;99802.56;5093132;28;20184;-72
2023/07/01 03:06:41;;;;;;;8.77;8.17;;;;;;;15.27;100.00;99800.91;5087768;28;20198;-75
2023/07/01 03:09:07;;;;;;;8.00;7.40;;;;;;;15.23;100.00;99797.59;5078953;28;20189;-73
2023/07/01 03:11:35;;;;;;;8.70;8.00;;;;;;;15.21;100.00;99800.22;5087962;28;20177;-73
2023/07/01 03:14:01;;;;;;;8.27;7.67;;;;;;;15.19;100.00;99804.69;5084369;28;20208;-73
2023/07/01 03:16:26;;;;;;;8.50;7.73;;;;;;;15.17;100.00;99805.59;5090222;28;20195;-74
2023/07/01 03:18:51;;;;;;;8.07;7.47;;;;;;;15.15;100.00;99802.22;5085882;28;20677;-74
2023/07/01 03:21:16;;;;;;;8.50;7.80;;;;;;;15.12;100.00;99808.38;5084626;28;20189;-74
2023/07/01 03:23:42;;;;;;;7.80;7.27;;;;;;;15.12;100.00;99813.59;5082157;28;20640;-74
2023/07/01 03:26:07;;;;;;;8.07;7.43;;;;;;;15.11;100.00;99818.88;5079608;28;20205;-74
2023/07/01 03:28:32;;;;;;;8.33;7.47;;;;;;;15.08;100.00;99807.66;5082160;28;20184;-74
2023/07/01 03:30:58;;;;;;;7.87;7.17;;;;;;;15.08;100.00;99807.66;5081775;28;20186;-75
2023/07/01 03:33:24;;;;;;;8.20;7.50;;;;;;;15.09;100.00;99811.97;5083630;28;20212;-74
2023/07/01 03:35:49;;;;;;;7.53;7.00;;;;;;;15.11;100.00;99811.06;5083778;28;20696;-74
2023/07/01 03:38:15;;;;;;;8.43;7.77;;;;;;;15.12;100.00;99811.00;5077251;28;20217;-74
2023/07/01 03:40:40;;;;;;;7.93;7.40;;;;;;;15.13;100.00;99807.47;5081099;28;20757;-74
2023/07/01 03:43:06;;;;;;;8.37;7.77;;;;;;;15.17;100.00;99810.81;5075101;28;20185;-73
2023/07/01 03:45:31;;;;;;;7.93;7.27;;;;;;;15.18;100.00;99805.56;5082513;28;20220;-74
2023/07/01 03:47:57;;;;;;;7.43;6.83;;;;;;;15.22;100.00;99809.75;5085390;28;20195;-74
2023/07/01 03:50:22;;;;;;;8.00;7.40;;;;;;;15.24;100.00;99810.53;5084014;28;20244;-74
2023/07/01 03:52:47;;;;;;;7.43;6.93;;;;;;;15.29;100.00;99807.78;5083388;28;20219;-74
2023/07/01 03:55:14;;;;;;;7.20;6.70;;;;;;;15.36;100.00;99808.41;5086123;28;20208;-75
2023/07/01 03:57:40;;;;;;;7.43;6.93;;;;;;;15.46;100.00;99812.38;5094166;28;20198;-74
2023/07/01 04:00:18;;;;;;;7.40;6.90;;;;;;;15.65;100.00;99809.09;5091635;28;20230;-74
2023/07/01 04:02:48;;;;;;;7.87;7.17;;;;;;;15.84;100.00;99809.25;5087220;28;20184;-73
2023/07/01 04:05:14;;;;;;;6.30;5.70;;;;;;;15.79;100.00;99808.56;5094431;28;20211;-75
2023/07/01 04:07:41;;;;;;;6.23;5.73;;;;;;;15.93;100.00;99806.28;5100287;28;20185;-75
2023/07/01 04:10:08;;;;;;;6.10;5.60;;;;;;;15.98;100.00;99806.97;5092769;28;20288;-74
2023/07/01 04:12:34;;;;;;;5.67;5.17;;;;;;;16.09;100.00;99816.13;5081079;28;20215;-75
2023/07/01 04:15:00;;;;;;;5.23;4.83;;;;;;;16.17;100.00;99808.00;5101727;28;20212;-75
2023/07/01 04:17:26;;;;;;;5.70;5.20;;;;;;;16.20;100.00;99813.09;5088711;28;20199;-74
2023/07/01 04:19:52;;;;;;;5.73;5.23;;;;;;;16.33;100.00;99814.31;5088844;28;20189;-74
2023/07/01 04:22:18;;;;;;;6.10;5.57;;;;;;;16.39;100.00;99816.69;5087445;28;20198;-75
2023/07/01 04:24:43;;;;;;;5.13;4.73;;;;;;;16.45;100.00;99812.97;5089411;28;20258;-75
2023/07/01 04:27:08;;;;;;;5.20;4.80;;;;;;;16.59;100.00;99817.59;5088832;28;20189;-74
2023/07/01 04:29:34;;;;;;;4.40;4.10;;;;;;;16.63;100.00;99819.19;5099822;28;20642;-74
2023/07/01 04:31:59;;;;;;;5.03;4.57;;;;;;;16.68;100.00;99811.16;5102576;28;20216;-74
2023/07/01 04:34:24;;;;;;;4.60;4.30;;;;;;;16.78;100.00;99809.88;5101569;28;20252;-74
2023/07/01 04:36:49;;;;;;;6.63;4.20;;;;;;;16.76;100.00;99812.53;5096201;28;22097;-75
2023/07/01 04:39:15;;;;;;;4.00;3.70;;;;;;;16.87;100.00;99806.84;5086916;28;20216;-74
2023/07/01 04:41:40;;;;;;;5.10;4.40;;;;;;;16.95;100.00;99806.56;5102101;28;20600;-73
2023/07/01 04:44:05;;;;;;;4.23;3.83;;;;;;;17.21;100.00;99808.03;5093977;28;20189;-75
2023/07/01 04:46:32;;;;;;;3.87;3.57;;;;;;;17.62;100.00;99801.00;5086364;28;20182;-74
2023/07/01 04:48:59;;;;;;;4.13;3.27;;;;;;;17.75;100.00;99798.66;5086632;28;20201;-74
2023/07/01 04:51:25;;;;;;;3.70;3.40;;;;;;;18.38;100.00;99808.75;5091144;28;20185;-74
2023/07/01 04:53:50;;;;;;;3.90;3.60;;;;;;;18.64;100.00;99797.91;5087081;28;20207;-73
2023/07/01 04:56:16;;;;;;;2.93;2.73;;;;;;;19.07;100.00;99798.34;5089599;28;20217;-74
2023/07/01 04:58:41;;;;;;;3.70;3.07;;;;;;;19.35;100.00;99802.13;5104192;28;20199;-74
2023/07/01 05:01:07;;;;;;;4.40;2.93;;;;;;;19.41;100.00;99798.34;5086341;28;20196;-73
2023/07/01 05:03:32;;;;;;;3.30;3.00;;;;;;;19.85;100.00;99799.47;5086646;28;20181;-74
2023/07/01 05:05:58;;;;;;;4.37;2.77;;;;;;;19.99;100.00;99803.97;5083263;28;20221;-75
2023/07/01 05:08:23;;;;;;;6.37;3.10;;;;;;;20.26;100.00;99804.19;5083630;28;20300;-74
2023/07/01 05:10:49;;;;;;;3.20;2.80;;;;;;;20.60;100.00;99802.25;5094500;28;20550;-74
2023/07/01 05:13:14;;;;;;;2.90;2.70;;;;;;;20.99;100.00;99800.00;5093366;28;20559;-74
2023/07/01 05:15:40;;;;;;;3.00;2.73;;;;;;;21.27;100.00;99798.31;5076422;28;20303;-74
2023/07/01 05:18:06;;;;;;;2.93;2.70;;;;;;;21.40;100.00;99793.97;5080257;28;20433;-74
2023/07/01 05:20:31;;;;;;;2.90;2.60;;;;;;;21.61;100.00;99794.44;5085575;28;20634;-74
2023/07/01 05:22:56;;;;;;;2.73;2.30;;;;;;;21.84;100.00;99796.56;5092109;28;20233;-74
2023/07/01 05:25:22;;;;;;;3.00;2.50;;;;;;;21.98;100.00;99795.69;5087419;28;20209;-74
2023/07/01 05:27:47;;;;;;;2.77;2.57;;;;;;;22.18;100.00;99789.94;5079767;28;20181;-75
2023/07/01 05:30:12;;;;;;;3.40;2.70;;;;;;;22.17;100.00;99795.31;5084609;28;20185;-75
2023/07/01 05:32:38;;;;;;;3.23;2.60;;;;;;;22.35;100.00;99790.63;5083244;28;20210;-75
2023/07/01 05:35:03;;;;;;;2.47;2.00;;;;;;;22.49;100.00;99795.84;5081157;28;20210;-74
2023/07/01 05:37:29;;;;;;;2.60;2.40;;;;;;;22.86;100.00;99792.50;5086994;28;20574;-75
2023/07/01 05:39:54;;;;;;;2.57;2.30;;;;;;;23.16;100.00;99786.06;5077047;28;20269;-75
2023/07/01 05:42:19;;;;;;;2.97;2.60;;;;;;;23.58;100.00;99793.75;5073937;28;20273;-74
2023/07/01 05:44:45;;;;;;;3.63;2.33;;;;;;;23.73;100.00;99783.88;5073613;28;20217;-74
2023/07/01 05:47:10;;;;;;;2.50;2.30;;;;;;;23.35;100.00;99790.94;5075364;28;21126;-74
2023/07/01 05:49:35;;;;;;;2.90;2.60;;;;;;;22.79;100.00;99785.97;5077994;28;20197;-74
2023/07/01 05:52:00;;;;;;;3.30;2.53;;;;;;;22.39;100.00;99792.13;5083354;28;20250;-75
2023/07/01 05:54:26;;;;;;;6.20;2.40;;;;;;;21.86;100.00;99786.78;5089155;28;20217;-74
2023/07/01 05:56:51;;;;;;;2.90;2.50;;;;;;;21.62;100.00;99785.59;5089156;28;20210;-74
2023/07/01 05:59:16;;;;;;;4.30;2.70;;;;;;;21.40;100.00;99787.88;5078776;28;20181;-74
2023/07/01 06:01:42;;;;;;;2.97;2.60;;;;;;;21.57;100.00;99776.28;5079679;28;20193;-75
2023/07/01 06:04:07;;;;;;;5.53;2.43;;;;;;;22.06;100.00;99788.97;5086354;28;20189;-75
2023/07/01 06:06:33;;;;;;;3.40;2.70;;;;;;;22.47;100.00;99781.94;5096780;28;20731;-76
2023/07/01 06:08:59;;;;;;;4.33;2.83;;;;;;;23.03;100.00;99777.31;5078432;28;20275;-75
2023/07/01 06:11:24;;;;;;;3.07;2.67;;;;;;;23.22;100.00;99776.91;5100312;28;20262;-74
2023/07/01 06:13:50;;;;;;;2.60;2.40;;;;;;;23.87;100.00;99783.72;5089091;28;20685;-75
2023/07/01 06:16:16;;;;;;;2.67;2.47;;;;;;;24.49;100.00;99789.78;5082628;28;20379;-76
2023/07/01 06:18:41;;;;;;;2.87;2.43;;;;;;;24.37;100.00;99781.91;5076656;28;21000;-75
2023/07/01 06:21:08;;;;;;;3.53;2.43;;;;;;;24.19;92.11;99777.91;5097730;28;20189;-75
2023/07/01 06:23:34;;;;;;;3.27;2.30;;;;;;;24.11;97.62;99776.78;5088411;28;20189;-75
2023/07/01 06:25:59;;;;;;;4.73;2.50;;;;;;;23.53;92.25;99780.88;5084820;28;20208;-73
2023/07/01 06:28:25;;;;;;;6.83;2.50;;;;;;;23.64;89.78;99777.47;5081635;28;20191;-74
2023/07/01 06:30:50;;;;;;;3.57;2.43;;;;;;;23.93;83.82;99768.34;5087423;28;20219;-74
2023/07/01 06:33:15;;;;;;;2.93;2.13;;;;;;;24.28;82.00;99767.59;5105400;28;20281;-75
2023/07/01 06:35:43;;;;;;;3.17;2.20;;;;;;;24.55;81.91;99766.44;5092276;28;20775;-75
2023/07/01 06:38:08;;;;;;;3.97;2.20;;;;;;;24.85;80.68;99768.59;5081686;28;20176;-75
2023/07/01 06:40:33;;;;;;;2.88;2.28;;;;;;;25.00;80.56;99763.06;5084848;28;20241;-75
2023/07/01 06:42:59;;;;;;;2.65;2.00;;;;;;;24.84;77.36;99758.97;5081211;28;20295;-74
2023/07/01 06:45:24;;;;;;;2.92;2.22;;;;;;;24.28;76.40;99764.94;5098497;28;20231;-76
2023/07/01 06:47:49;;;;;;;3.17;2.10;;;;;;;24.82;77.69;99752.94;5087228;28;20176;-74
2023/07/01 06:50:15;;;;;;;3.33;2.33;;;;;;;25.49;76.08;99747.75;5091949;28;20217;-74
2023/07/01 06:52:40;;;;;;;2.92;2.33;;;;;;;25.64;74.26;99749.19;5085483;28;20205;-75
2023/07/01 06:55:07;;;;;;;3.38;2.30;;;;;;;25.32;73.17;99739.31;5092492;28;20201;-75
2023/07/01 06:57:33;;;;;;;4.32;2.20;;;;;;;25.92;74.11;99741.63;5082565;28;20185;-74
2023/07/01 06:59:58;;;;;;;3.25;2.20;;;;;;;25.94;72.86;99744.16;5084417;28;20558;-74
2023/07/01 07:02:23;;;;;;;5.70;2.03;;;;;;;25.86;68.92;99737.66;5086589;28;20598;-74
2023/07/01 07:04:49;;;;;;;3.60;2.17;;;;;;;25.58;69.09;99735.59;5081865;28;20217;-74
2023/07/01 07:07:15;;;;;;;3.80;1.85;;;;;;;25.56;71.44;99743.66;5085860;28;20221;-75
2023/07/01 07:09:40;;;;;;;2.97;2.00;;;;;;;25.98;69.76;99748.22;5092053;28;20185;-75
2023/07/01 07:12:06;;;;;;;2.58;1.92;;;;;;;26.00;68.09;99735.69;5084586;28;20268;-75
2023/07/01 07:14:31;;;;;;;2.50;2.08;;;;;;;26.04;69.15;99742.41;5086269;28;20213;-74
2023/07/01 07:16:56;;;;;;;2.40;2.15;;;;;;;26.14;69.51;99734.56;5090361;28;20270;-75
2023/07/01 07:19:22;;;;;;;2.28;2.08;;;;;;;26.44;67.37;99735.63;5091892;28;20203;-76
2023/07/01 07:21:47;;;;;;;3.10;1.90;;;;;;;26.78;67.63;99728.25;5092695;28;20882;-75
2023/07/01 07:24:13;;;;;;;3.53;2.13;;;;;;;27.48;64.67;99721.41;5085082;28;20185;-74
2023/07/01 07:26:38;;;;;;;3.25;2.10;;;;;;;27.61;64.97;99732.59;5082854;28;20244;-75
2023/07/01 07:29:03;;;;;;;4.60;2.40;;;;;;;27.28;66.29;99733.78;5091153;28;20706;-75
2023/07/01 07:31:29;;;;;;;2.00;1.75;;;;;;;27.48;66.78;99729.38;5089172;28;20653;-75
2023/07/01 07:33:54;;;;;;;3.08;2.10;;;;;;;27.77;64.40;99721.44;5095065;28;20204;-73
2023/07/01 07:36:19;;;;;;;3.08;2.20;;;;;;;27.75;65.47;99720.75;5096994;27;20216;-74
2023/07/01 07:38:45;;;;;;;4.32;2.55;;;;;;;27.64;65.74;99713.72;5094410;28;20196;-74
2023/07/01 07:41:11;;;;;;;2.83;2.15;;;;;;;27.65;65.66;99707.44;5077917;28;20625;-74
2023/07/01 07:43:36;;;;;;;4.80;2.50;;;;;;;27.45;66.64;99700.41;5089276;28;20269;-74
2023/07/01 07:46:01;;;;;;;2.63;2.30;;;;;;;27.18;67.00;99709.84;5097708;28;20577;-74
2023/07/01 07:48:27;;;;;;;4.53;2.40;;;;;;;25.97;68.07;99712.06;5093536;28;20565;-74
2023/07/01 07:50:52;;;;;;;4.00;2.80;;;;;;;25.73;68.46;99699.88;5099432;28;20672;-74
2023/07/01 07:53:17;;;;;;;4.07;2.78;;;;;;;25.94;68.42;99701.75;5078257;28;20212;-74
2023/07/01 07:55:43;;;;;;;3.53;3.22;;;;;;;26.31;67.65;99701.31;5085634;28;20209;-74
2023/07/01 07:58:09;;;;;;;5.53;4.43;;;;;;;26.33;65.83;99704.69;5084370;28;20597;-74
2023/07/01 08:00:34;;;;;;;6.38;4.80;;;;;;;25.82;67.53;99699.13;5089782;28;20189;-74
2023/07/01 08:03:00;;;;;;;5.13;4.10;;;;;;;25.90;68.08;99703.78;5083346;28;20226;-74
2023/07/01 08:05:26;;;;;;;5.68;4.20;;;;;;;25.77;68.13;99700.47;5087100;28;21311;-73
2023/07/01 08:07:52;;;;;;;5.80;3.65;;;;;;;25.96;68.44;99697.97;5095864;28;20184;-74
2023/07/01 08:10:18;;;;;;;3.88;2.65;;;;;;;25.65;68.16;99692.56;5096168;28;20213;-74
2023/07/01 08:12:43;;;;;;;3.38;2.50;;;;;;;26.12;68.17;99686.94;5094261;28;20224;-74
2023/07/01 08:15:09;;;;;;;2.80;2.58;;;;;;;26.48;66.85;99674.19;5086656;28;20221;-74
2023/07/01 08:17:35;;;;;;;6.40;2.95;;;;;;;25.69;67.58;99682.56;5088173;28;20177;-75
2023/07/01 08:20:00;;;;;;;3.45;1.98;;;;;;;25.25;68.53;99679.91;5082180;28;20205;-74
2023/07/01 08:22:26;;;;;;;2.40;2.10;;;;;;;25.79;67.62;99693.22;5077420;28;20285;-74
2023/07/01 08:24:51;;;;;;;2.15;1.92;;;;;;;25.83;66.90;99678.78;5076537;28;20288;-74
2023/07/01 08:27:16;;;;;;;3.50;2.05;;;;;;;25.41;67.35;99685.63;5082140;28;20215;-74
2023/07/01 08:29:42;;;;;;;4.70;2.00;;;;;;;24.58;68.61;99678.94;5084174;28;20191;-74
2023/07/01 08:32:08;;;;;;;3.20;2.17;;;;;;;24.72;70.15;99673.44;5086536;28;20189;-74
2023/07/01 08:34:35;;;;;;;2.90;2.30;;;;;;;24.88;70.85;99678.34;5088495;28;20214;-75
2023/07/01 08:37:00;;;;;;;2.23;2.03;;;;;;;25.27;70.05;99678.78;5091086;28;20727;-74
2023/07/01 08:39:26;;;;;;;5.40;2.27;;;;;;;24.69;68.69;99667.50;5108762;28;20193;-74
2023/07/01 08:41:56;;;;;;;4.93;2.07;;;;;;;24.34;69.48;99671.94;5090020;28;20199;-75
2023/07/01 08:44:22;;;;;;;5.57;2.30;;;;;;;23.99;69.99;99670.16;5086392;28;20212;-74
2023/07/01 08:46:52;;;;;;;3.70;2.20;;;;;;;24.26;69.73;99663.72;5087431;28;20188;-74
2023/07/01 08:49:22;;;;;;;3.23;2.03;;;;;;;24.43;69.78;99665.09;5091190;28;20200;-74
2023/07/01 08:51:53;;;;;;;6.10;2.20;;;;;;;24.26;70.19;99658.44;5078072;28;20684;-74
2023/07/01 08:54:20;;;;;;;4.00;2.07;;;;;;;24.19;72.28;99663.38;5089605;28;20205;-73
2023/07/01 08:56:48;;;;;;;2.40;2.07;;;;;;;25.01;71.90;99659.69;5084297;28;20185;-74
2023/07/01 08:59:14;;;;;;;3.97;2.20;;;;;;;25.58;70.63;99654.28;5091248;28;20181;-74
2023/07/01 09:01:42;;;;;;;2.63;2.07;;;;;;;25.68;69.87;99657.88;5086179;28;20184;-74
2023/07/01 09:04:08;;;;;;;3.60;2.13;;;;;;;25.98;68.43;99647.47;5087597;28;20228;-74
2023/07/01 09:06:33;;;;;;;2.73;2.07;;;;;;;26.36;67.14;99653.19;5083139;28;20256;-74
2023/07/01 09:08:59;;;;;;;4.70;2.20;;;;;;;26.39;67.17;99642.31;5085882;28;20223;-74
2023/07/01 09:11:24;;;;;;;3.87;2.10;;;;;;;26.26;67.11;99631.91;5089069;28;20184;-73
2023/07/01 09:13:54;;;;;;;2.27;2.07;;;;;;;26.29;66.18;99644.91;5089542;28;20265;-74
2023/07/01 09:16:34;;;;;;;5.57;2.33;;;;;;;26.14;65.63;99631.16;5088470;28;20216;-74
2023/07/01 09:19:07;;;;;;;3.57;2.33;;;;;;;26.00;66.24;99625.19;5081636;28;20188;-73
2023/07/01 09:21:32;;;;;;;3.63;2.20;;;;;;;26.14;65.64;99623.19;5084038;28;20185;-73
2023/07/01 09:23:59;;;;;;;2.87;2.23;;;;;;;26.30;65.16;99625.38;5085009;28;20185;-73
2023/07/01 09:26:29;;;;;;;3.30;2.60;;;;;;;26.74;64.35;99628.63;5085577;28;20205;-74
2023/07/01 09:28:56;;;;;;;3.60;2.10;;;;;;;26.85;64.66;99630.38;5084391;28;20193;-74
2023/07/01 09:31:22;;;;;;;4.63;2.23;;;;;;;26.73;64.90;99626.13;5080698;28;20193;-74
2023/07/01 09:34:01;;;;;;;5.13;2.27;;;;;;;26.32;64.78;99626.09;5089705;28;20817;-74
2023/07/01 09:36:29;;;;;;;5.27;2.70;;;;;;;25.79;65.20;99619.03;5084246;28;20683;-74
2023/07/01 09:38:55;;;;;;;4.37;2.23;;;;;;;25.50;66.08;99625.78;5081428;28;20185;-74
2023/07/01 09:41:24;;;;;;;4.50;2.30;;;;;;;25.68;65.66;99623.44;5081980;28;20215;-74
2023/07/01 09:43:50;;;;;;;3.97;2.00;;;;;;;25.78;67.28;99620.84;5083012;28;20228;-73
2023/07/01 09:46:16;;;;;;;4.37;2.07;;;;;;;25.49;66.46;99621.44;5084582;28;20205;-74
2023/07/01 09:48:55;;;;;;;4.37;1.93;;;;;;;25.27;67.46;99617.88;5084707;28;20263;-74
2023/07/01 09:51:22;;;;;;;3.27;2.00;;;;;;;25.21;66.99;99617.56;5083146;28;20188;-75
2023/07/01 09:53:48;;;;;;;4.23;2.10;;;;;;;25.67;65.82;99620.88;5083127;28;20242;-75
2023/07/01 09:56:16;;;;;;;3.13;2.00;;;;;;;25.83;65.87;99616.00;5086329;28;20741;-74
2023/07/01 09:58:42;;;;;;;3.30;2.47;;;;;;;25.78;66.10;99607.59;5081889;28;20185;-75
2023/07/01 10:01:08;;;;;;;3.40;2.07;;;;;;;25.55;66.14;99607.69;5086118;28;20257;-74
2023/07/01 10:03:33;;;;;;;3.27;1.93;;;;;;;26.11;65.68;99610.19;5091743;28;20174;-74
2023/07/01 10:05:58;;;;;;;3.33;2.10;;;;;;;26.59;64.56;99598.13;5081784;28;20210;-75
2023/07/01 10:08:24;;;;;;;2.23;1.87;;;;;;;26.72;63.78;99605.84;5081297;28;20181;-73
2023/07/01 10:11:05;;;;;;;3.77;2.10;;;;;;;26.43;62.78;99594.16;5087317;28;20268;-74
2023/07/01 10:13:37;;;;;;;3.30;1.83;;;;;;;26.54;62.58;99589.75;5087883;28;20201;-75
2023/07/01 10:16:04;;;;;;;3.93;2.40;;;;;;;26.41;60.78;99595.28;5081016;27;20221;-74
2023/07/01 10:18:30;;;;;;;2.73;2.20;;;;;;;26.69;61.35;99591.06;5083902;28;21364;-74
2023/07/01 10:21:24;;;;;;;4.77;2.60;;;;;;;27.02;59.61;99590.88;5085954;28;20193;-74
2023/07/01 10:23:54;;;;;;;6.20;2.30;;;;;;;27.27;59.05;99596.63;5086316;28;20208;-74
2023/07/01 10:26:31;;;;;;;2.40;2.20;;;;;;;27.44;58.78;99587.94;5085056;28;20223;-74
2023/07/01 10:28:56;;;;;;;2.60;2.17;;;;;;;27.53;59.54;99595.09;5077998;28;20196;-74
2023/07/01 10:31:22;;;;;;;2.53;2.33;;;;;;;27.80;59.06;99587.38;5083405;28;20300;-74
2023/07/01 10:33:48;;;;;;;3.57;2.30;;;;;;;27.33;58.70;99586.28;5091933;28;20211;-75
2023/07/01 10:36:14;;;;;;;3.07;2.30;;;;;;;27.17;60.10;99583.31;5083193;28;20203;-74
2023/07/01 10:38:39;;;;;;;3.30;2.67;;;;;;;27.13;59.73;99587.25;5086488;28;20264;-75
2023/07/01 10:41:06;;;;;;;2.33;2.10;;;;;;;27.50;60.18;99597.22;5086768;28;20189;-74
2023/07/01 10:43:36;;;;;;;3.93;2.57;;;;;;;27.53;59.45;99586.31;5089534;28;20238;-74
2023/07/01 10:46:24;;;;;;;5.40;2.20;;;;;;;27.47;59.34;99597.47;5091992;28;20320;-74
2023/07/01 10:49:02;;;;;;;3.93;2.10;;;;;;;26.77;60.72;99591.19;5080256;28;20243;-75
2023/07/01 10:51:28;;;;;;;4.37;1.80;;;;;;;27.03;60.68;99588.06;5080185;28;20653;-74
2023/07/01 10:54:04;;;;;;;2.43;2.07;;;;;;;26.97;60.97;99579.81;5090716;28;20201;-74
2023/07/01 10:56:34;;;;;;;4.40;2.40;;;;;;;26.25;60.88;99587.78;5091871;28;20205;-73
2023/07/01 10:59:20;;;;;;;2.20;2.00;;;;;;;26.56;61.23;99585.13;5086018;28;20687;-73
2023/07/01 11:01:48;;;;;;;2.63;2.10;;;;;;;26.48;62.26;99577.84;5086978;28;20245;-74
2023/07/01 11:04:13;;;;;;;5.60;2.53;;;;;;;26.29;63.35;99575.94;5088706;28;20181;-74
2023/07/01 11:06:48;;;;;;;6.07;1.97;;;;;;;26.19;63.58;99581.19;5083549;28;20190;-74
2023/07/01 11:09:14;;;;;;;2.37;2.17;;;;;;;26.45;62.26;99581.59;5079371;28;20193;-74
2023/07/01 11:11:40;;;;;;;3.63;2.20;;;;;;;25.76;62.99;99574.22;5091026;28;20189;-74
2023/07/01 11:14:09;;;;;;;2.63;2.13;;;;;;;25.38;63.84;99573.78;5084455;28;20671;-74
2023/07/01 11:16:36;;;;;;;2.53;2.13;;;;;;;25.08;64.56;99583.28;5084906;28;20222;-74
2023/07/01 11:19:07;;;;;;;4.53;2.27;;;;;;;24.92;66.67;99579.22;5094099;28;20584;-75
2023/07/01 11:21:33;;;;;;;3.17;2.23;;;;;;;24.95;65.48;99581.63;5084916;28;20293;-74
2023/07/01 11:24:03;;;;;;;5.20;2.23;;;;;;;25.16;65.73;99572.91;5083713;28;20590;-74